sensor_id;sensor_type;location;lat;lon;timestamp;temperature;humidity
78345;DHT22;67620;51.134;6.548;2023-07-24T00:01:58;19.20;80.30
78345;DHT22;67620;51.134;6.548;2023-07-24T00:04:24;19.20;80.50
78345;DHT22;67620;51.134;6.548;2023-07-24T00:06:49;19.10;80.50
78345;DHT22;67620;51.134;6.548;2023-07-24T00:09:15;19.10;80.40
78345;DHT22;67620;51.134;6.548;2023-07-24T00:11:40;19.10;80.40
78345;DHT22;67620;51.134;6.548;2023-07-24T00:14:06;19.10;80.50
78345;DHT22;67620;51.134;6.548;2023-07-24T00:16:31;19.10;80.40
78345;DHT22;67620;51.134;6.548;2023-07-24T00:18:57;19.10;80.00
78345;DHT22;67620;51.134;6.548;2023-07-24T00:21:22;19.10;80.10
78345;DHT22;67620;51.134;6.548;2023-07-24T00:23:48;19.00;80.40
78345;DHT22;67620;51.134;6.548;2023-07-24T00:26:13;19.00;80.20
78345;DHT22;67620;51.134;6.548;2023-07-24T00:28:39;19.00;80.20
78345;DHT22;67620;51.134;6.548;2023-07-24T00:31:04;19.00;80.50
78345;DHT22;67620;51.134;6.548;2023-07-24T00:33:30;18.90;80.60
78345;DHT22;67620;51.134;6.548;2023-07-24T00:35:56;18.90;80.50
78345;DHT22;67620;51.134;6.548;2023-07-24T00:38:25;18.90;80.60
78345;DHT22;67620;51.134;6.548;2023-07-24T00:40:51;18.80;80.70
78345;DHT22;67620;51.134;6.548;2023-07-24T00:43:16;18.90;80.70
78345;DHT22;67620;51.134;6.548;2023-07-24T00:45:42;18.90;80.50
78345;DHT22;67620;51.134;6.548;2023-07-24T00:48:10;18.80;80.70
78345;DHT22;67620;51.134;6.548;2023-07-24T00:50:36;18.80;80.70
78345;DHT22;67620;51.134;6.548;2023-07-24T00:53:02;18.70;80.90
78345;DHT22;67620;51.134;6.548;2023-07-24T00:55:28;18.70;81.00
78345;DHT22;67620;51.134;6.548;2023-07-24T00:57:56;18.70;81.00
78345;DHT22;67620;51.134;6.548;2023-07-24T01:00:22;18.70;81.10
78345;DHT22;67620;51.134;6.548;2023-07-24T01:02:48;18.70;80.80
78345;DHT22;67620;51.134;6.548;2023-07-24T01:05:14;18.70;80.90
78345;DHT22;67620;51.134;6.548;2023-07-24T01:07:42;18.70;80.70
78345;DHT22;67620;51.134;6.548;2023-07-24T01:10:08;18.60;80.90
78345;DHT22;67620;51.134;6.548;2023-07-24T01:12:35;18.60;81.00
78345;DHT22;67620;51.134;6.548;2023-07-24T01:15:31;18.60;81.20
78345;DHT22;67620;51.134;6.548;2023-07-24T01:18:07;18.60;81.30
78345;DHT22;67620;51.134;6.548;2023-07-24T01:20:35;18.60;81.20
78345;DHT22;67620;51.134;6.548;2023-07-24T01:25:58;18.60;81.20
78345;DHT22;67620;51.134;6.548;2023-07-24T01:28:24;18.50;81.40
78345;DHT22;67620;51.134;6.548;2023-07-24T01:30:50;18.50;81.70
78345;DHT22;67620;51.134;6.548;2023-07-24T01:33:17;18.40;81.80
78345;DHT22;67620;51.134;6.548;2023-07-24T01:35:43;18.50;81.70
78345;DHT22;67620;51.134;6.548;2023-07-24T01:38:11;18.40;81.90
78345;DHT22;67620;51.134;6.548;2023-07-24T01:40:39;18.50;81.70
78345;DHT22;67620;51.134;6.548;2023-07-24T01:43:05;18.50;81.60
78345;DHT22;67620;51.134;6.548;2023-07-24T01:45:31;18.50;81.70
78345;DHT22;67620;51.134;6.548;2023-07-24T01:47:57;18.40;81.70
78345;DHT22;67620;51.134;6.548;2023-07-24T01:50:22;18.40;81.70
78345;DHT22;67620;51.134;6.548;2023-07-24T01:52:48;18.50;81.60
78345;DHT22;67620;51.134;6.548;2023-07-24T01:55:13;18.40;81.70
78345;DHT22;67620;51.134;6.548;2023-07-24T01:57:39;18.40;82.00
78345;DHT22;67620;51.134;6.548;2023-07-24T02:00:05;18.40;81.90
78345;DHT22;67620;51.134;6.548;2023-07-24T02:02:31;18.40;82.10
78345;DHT22;67620;51.134;6.548;2023-07-24T02:04:56;18.40;82.10
78345;DHT22;67620;51.134;6.548;2023-07-24T02:07:22;18.40;82.00
78345;DHT22;67620;51.134;6.548;2023-07-24T02:09:48;18.40;82.10
78345;DHT22;67620;51.134;6.548;2023-07-24T02:12:13;18.40;82.00
78345;DHT22;67620;51.134;6.548;2023-07-24T02:14:39;18.40;81.90
78345;DHT22;67620;51.134;6.548;2023-07-24T02:17:04;18.50;81.70
78345;DHT22;67620;51.134;6.548;2023-07-24T02:19:30;18.50;81.90
78345;DHT22;67620;51.134;6.548;2023-07-24T02:21:55;18.50;81.90
78345;DHT22;67620;51.134;6.548;2023-07-24T02:24:21;18.50;81.90
78345;DHT22;67620;51.134;6.548;2023-07-24T02:26:46;18.50;81.70
78345;DHT22;67620;51.134;6.548;2023-07-24T02:29:12;18.50;81.80
78345;DHT22;67620;51.134;6.548;2023-07-24T02:31:37;18.50;81.70
78345;DHT22;67620;51.134;6.548;2023-07-24T02:34:03;18.50;81.40
78345;DHT22;67620;51.134;6.548;2023-07-24T02:36:28;18.60;82.00
78345;DHT22;67620;51.134;6.548;2023-07-24T02:38:54;18.60;81.90
78345;DHT22;67620;51.134;6.548;2023-07-24T02:41:19;18.60;82.10
78345;DHT22;67620;51.134;6.548;2023-07-24T02:43:45;18.60;82.00
78345;DHT22;67620;51.134;6.548;2023-07-24T02:46:10;18.60;82.20
78345;DHT22;67620;51.134;6.548;2023-07-24T02:48:36;18.60;82.20
78345;DHT22;67620;51.134;6.548;2023-07-24T02:51:01;18.60;82.40
78345;DHT22;67620;51.134;6.548;2023-07-24T02:53:27;18.60;82.30
78345;DHT22;67620;51.134;6.548;2023-07-24T02:55:52;18.60;82.60
78345;DHT22;67620;51.134;6.548;2023-07-24T02:58:18;18.60;82.70
78345;DHT22;67620;51.134;6.548;2023-07-24T03:00:43;18.50;82.80
78345;DHT22;67620;51.134;6.548;2023-07-24T03:03:09;18.60;82.80
78345;DHT22;67620;51.134;6.548;2023-07-24T03:05:35;18.50;82.70
78345;DHT22;67620;51.134;6.548;2023-07-24T03:08:00;18.60;83.00
78345;DHT22;67620;51.134;6.548;2023-07-24T03:10:26;18.60;82.80
78345;DHT22;67620;51.134;6.548;2023-07-24T03:12:51;18.60;82.80
78345;DHT22;67620;51.134;6.548;2023-07-24T03:15:17;18.60;82.80
78345;DHT22;67620;51.134;6.548;2023-07-24T03:17:42;18.60;82.80
78345;DHT22;67620;51.134;6.548;2023-07-24T03:20:09;18.60;82.80
78345;DHT22;67620;51.134;6.548;2023-07-24T03:22:35;18.60;82.70
78345;DHT22;67620;51.134;6.548;2023-07-24T03:25:01;18.60;82.70
78345;DHT22;67620;51.134;6.548;2023-07-24T03:27:26;18.60;82.60
78345;DHT22;67620;51.134;6.548;2023-07-24T03:29:52;18.60;82.60
78345;DHT22;67620;51.134;6.548;2023-07-24T03:32:17;18.60;82.70
78345;DHT22;67620;51.134;6.548;2023-07-24T03:34:43;18.60;82.60
78345;DHT22;67620;51.134;6.548;2023-07-24T03:37:08;18.60;82.50
78345;DHT22;67620;51.134;6.548;2023-07-24T03:39:34;18.60;82.50
78345;DHT22;67620;51.134;6.548;2023-07-24T03:41:59;18.50;82.70
78345;DHT22;67620;51.134;6.548;2023-07-24T03:44:25;18.50;82.70
78345;DHT22;67620;51.134;6.548;2023-07-24T03:46:50;18.60;82.60
78345;DHT22;67620;51.134;6.548;2023-07-24T03:49:16;18.60;82.40
78345;DHT22;67620;51.134;6.548;2023-07-24T03:51:41;18.60;82.50
78345;DHT22;67620;51.134;6.548;2023-07-24T03:54:07;18.60;82.40
78345;DHT22;67620;51.134;6.548;2023-07-24T03:56:32;18.60;82.50
78345;DHT22;67620;51.134;6.548;2023-07-24T03:58:58;18.60;82.60
78345;DHT22;67620;51.134;6.548;2023-07-24T04:01:23;18.60;82.50
78345;DHT22;67620;51.134;6.548;2023-07-24T04:03:49;18.60;82.30
78345;DHT22;67620;51.134;6.548;2023-07-24T04:06:14;18.60;82.30
78345;DHT22;67620;51.134;6.548;2023-07-24T04:08:40;18.60;82.30
78345;DHT22;67620;51.134;6.548;2023-07-24T04:11:05;18.60;82.20
78345;DHT22;67620;51.134;6.548;2023-07-24T04:13:31;18.60;82.10
78345;DHT22;67620;51.134;6.548;2023-07-24T04:15:56;18.60;82.20
78345;DHT22;67620;51.134;6.548;2023-07-24T04:18:23;18.60;82.20
78345;DHT22;67620;51.134;6.548;2023-07-24T04:20:49;18.60;82.20
78345;DHT22;67620;51.134;6.548;2023-07-24T04:23:14;18.60;82.10
78345;DHT22;67620;51.134;6.548;2023-07-24T04:25:40;18.60;82.30
78345;DHT22;67620;51.134;6.548;2023-07-24T04:28:05;18.60;82.40
78345;DHT22;67620;51.134;6.548;2023-07-24T04:30:31;18.60;82.50
78345;DHT22;67620;51.134;6.548;2023-07-24T04:32:56;18.60;82.50
78345;DHT22;67620;51.134;6.548;2023-07-24T04:35:22;18.60;82.70
78345;DHT22;67620;51.134;6.548;2023-07-24T04:37:47;18.60;83.00
78345;DHT22;67620;51.134;6.548;2023-07-24T04:40:13;18.60;82.90
78345;DHT22;67620;51.134;6.548;2023-07-24T04:42:38;18.60;83.10
78345;DHT22;67620;51.134;6.548;2023-07-24T04:45:04;18.60;83.00
78345;DHT22;67620;51.134;6.548;2023-07-24T04:47:30;18.60;83.00
78345;DHT22;67620;51.134;6.548;2023-07-24T04:49:55;18.60;83.00
78345;DHT22;67620;51.134;6.548;2023-07-24T04:52:21;18.60;83.10
78345;DHT22;67620;51.134;6.548;2023-07-24T04:54:46;18.60;83.00
78345;DHT22;67620;51.134;6.548;2023-07-24T04:57:12;18.60;83.20
78345;DHT22;67620;51.134;6.548;2023-07-24T04:59:37;18.60;83.30
78345;DHT22;67620;51.134;6.548;2023-07-24T05:02:03;18.60;83.30
78345;DHT22;67620;51.134;6.548;2023-07-24T05:04:29;18.60;83.60
78345;DHT22;67620;51.134;6.548;2023-07-24T05:06:54;18.60;83.50
78345;DHT22;67620;51.134;6.548;2023-07-24T05:09:19;18.70;83.30
78345;DHT22;67620;51.134;6.548;2023-07-24T05:11:45;18.70;83.50
78345;DHT22;67620;51.134;6.548;2023-07-24T05:14:11;18.60;83.20
78345;DHT22;67620;51.134;6.548;2023-07-24T05:16:36;18.70;83.30
78345;DHT22;67620;51.134;6.548;2023-07-24T05:19:02;18.70;83.50
78345;DHT22;67620;51.134;6.548;2023-07-24T05:21:27;18.70;83.50
78345;DHT22;67620;51.134;6.548;2023-07-24T05:23:53;18.70;83.60
78345;DHT22;67620;51.134;6.548;2023-07-24T05:26:18;18.60;83.70
78345;DHT22;67620;51.134;6.548;2023-07-24T05:28:44;18.70;83.60
78345;DHT22;67620;51.134;6.548;2023-07-24T05:31:09;18.70;83.50
78345;DHT22;67620;51.134;6.548;2023-07-24T05:33:35;18.70;83.20
78345;DHT22;67620;51.134;6.548;2023-07-24T05:36:02;18.70;83.30
78345;DHT22;67620;51.134;6.548;2023-07-24T05:38:28;18.70;83.30
78345;DHT22;67620;51.134;6.548;2023-07-24T05:40:57;18.70;83.40
78345;DHT22;67620;51.134;6.548;2023-07-24T05:43:23;18.70;83.00
78345;DHT22;67620;51.134;6.548;2023-07-24T05:45:53;18.70;82.90
78345;DHT22;67620;51.134;6.548;2023-07-24T05:48:20;18.80;82.80
78345;DHT22;67620;51.134;6.548;2023-07-24T05:50:45;18.80;81.90
78345;DHT22;67620;51.134;6.548;2023-07-24T05:53:11;18.80;82.40
78345;DHT22;67620;51.134;6.548;2023-07-24T05:55:36;18.80;81.80
78345;DHT22;67620;51.134;6.548;2023-07-24T05:58:02;18.80;81.80
78345;DHT22;67620;51.134;6.548;2023-07-24T06:00:28;18.80;81.30
78345;DHT22;67620;51.134;6.548;2023-07-24T06:02:53;18.80;81.20
78345;DHT22;67620;51.134;6.548;2023-07-24T06:05:19;18.80;81.50
78345;DHT22;67620;51.134;6.548;2023-07-24T06:07:45;18.90;81.50
78345;DHT22;67620;51.134;6.548;2023-07-24T06:10:11;18.90;81.20
78345;DHT22;67620;51.134;6.548;2023-07-24T06:12:36;18.90;81.00
78345;DHT22;67620;51.134;6.548;2023-07-24T06:15:02;18.90;80.40
78345;DHT22;67620;51.134;6.548;2023-07-24T06:17:28;18.90;80.90
78345;DHT22;67620;51.134;6.548;2023-07-24T06:19:54;18.90;81.00
78345;DHT22;67620;51.134;6.548;2023-07-24T06:22:19;19.00;80.50
78345;DHT22;67620;51.134;6.548;2023-07-24T06:24:45;19.00;80.50
78345;DHT22;67620;51.134;6.548;2023-07-24T06:27:10;19.00;80.30
78345;DHT22;67620;51.134;6.548;2023-07-24T06:29:36;19.00;80.00
78345;DHT22;67620;51.134;6.548;2023-07-24T06:32:01;19.10;79.90
78345;DHT22;67620;51.134;6.548;2023-07-24T06:34:27;19.10;79.30
78345;DHT22;67620;51.134;6.548;2023-07-24T06:36:52;19.10;79.90
78345;DHT22;67620;51.134;6.548;2023-07-24T06:39:18;19.10;79.80
78345;DHT22;67620;51.134;6.548;2023-07-24T06:41:44;19.10;79.90
78345;DHT22;67620;51.134;6.548;2023-07-24T06:44:10;19.10;80.10
78345;DHT22;67620;51.134;6.548;2023-07-24T06:46:35;19.20;80.40
78345;DHT22;67620;51.134;6.548;2023-07-24T06:49:01;19.10;79.40
78345;DHT22;67620;51.134;6.548;2023-07-24T06:51:26;19.20;80.10
78345;DHT22;67620;51.134;6.548;2023-07-24T06:53:52;19.20;79.20
78345;DHT22;67620;51.134;6.548;2023-07-24T06:56:17;19.20;79.30
78345;DHT22;67620;51.134;6.548;2023-07-24T06:58:43;19.20;79.20
78345;DHT22;67620;51.134;6.548;2023-07-24T07:01:08;19.20;79.60
78345;DHT22;67620;51.134;6.548;2023-07-24T07:03:34;19.20;79.50
78345;DHT22;67620;51.134;6.548;2023-07-24T07:06:03;19.20;79.90
78345;DHT22;67620;51.134;6.548;2023-07-24T07:08:29;19.20;79.50
78345;DHT22;67620;51.134;6.548;2023-07-24T07:10:59;19.20;79.30
78345;DHT22;67620;51.134;6.548;2023-07-24T07:13:24;19.30;79.20
78345;DHT22;67620;51.134;6.548;2023-07-24T07:15:50;19.20;79.20
78345;DHT22;67620;51.134;6.548;2023-07-24T07:18:15;19.30;79.10
78345;DHT22;67620;51.134;6.548;2023-07-24T07:20:52;19.30;79.30
78345;DHT22;67620;51.134;6.548;2023-07-24T07:23:18;19.30;79.20
78345;DHT22;67620;51.134;6.548;2023-07-24T07:25:44;19.30;78.30
78345;DHT22;67620;51.134;6.548;2023-07-24T07:28:11;19.30;78.40
78345;DHT22;67620;51.134;6.548;2023-07-24T07:30:36;19.30;78.10
78345;DHT22;67620;51.134;6.548;2023-07-24T07:33:02;19.30;78.30
78345;DHT22;67620;51.134;6.548;2023-07-24T07:35:27;19.30;77.60
78345;DHT22;67620;51.134;6.548;2023-07-24T07:37:53;19.30;77.40
78345;DHT22;67620;51.134;6.548;2023-07-24T07:40:18;19.20;77.70
78345;DHT22;67620;51.134;6.548;2023-07-24T07:42:44;19.20;77.80
78345;DHT22;67620;51.134;6.548;2023-07-24T07:45:10;19.20;77.60
78345;DHT22;67620;51.134;6.548;2023-07-24T07:47:36;19.30;77.60
78345;DHT22;67620;51.134;6.548;2023-07-24T07:50:01;19.30;77.20
78345;DHT22;67620;51.134;6.548;2023-07-24T07:52:27;19.40;77.10
78345;DHT22;67620;51.134;6.548;2023-07-24T07:54:52;19.40;77.10
78345;DHT22;67620;51.134;6.548;2023-07-24T07:57:18;19.40;77.40
78345;DHT22;67620;51.134;6.548;2023-07-24T07:59:43;19.40;77.40
78345;DHT22;67620;51.134;6.548;2023-07-24T08:02:09;19.50;77.40
78345;DHT22;67620;51.134;6.548;2023-07-24T08:04:34;19.50;76.80
78345;DHT22;67620;51.134;6.548;2023-07-24T08:07:00;19.50;77.00
78345;DHT22;67620;51.134;6.548;2023-07-24T08:09:25;19.50;77.10
78345;DHT22;67620;51.134;6.548;2023-07-24T08:11:51;19.50;76.90
78345;DHT22;67620;51.134;6.548;2023-07-24T08:14:17;19.50;76.70
78345;DHT22;67620;51.134;6.548;2023-07-24T08:16:43;19.60;76.40
78345;DHT22;67620;51.134;6.548;2023-07-24T08:19:08;19.60;76.00
78345;DHT22;67620;51.134;6.548;2023-07-24T08:21:34;19.70;76.20
78345;DHT22;67620;51.134;6.548;2023-07-24T08:23:59;19.80;77.10
78345;DHT22;67620;51.134;6.548;2023-07-24T08:26:27;19.80;76.20
78345;DHT22;67620;51.134;6.548;2023-07-24T08:28:53;19.80;76.60
78345;DHT22;67620;51.134;6.548;2023-07-24T08:31:19;19.70;75.60
78345;DHT22;67620;51.134;6.548;2023-07-24T08:33:44;19.70;75.80
78345;DHT22;67620;51.134;6.548;2023-07-24T08:36:10;19.70;76.20
78345;DHT22;67620;51.134;6.548;2023-07-24T08:38:37;19.70;75.70
78345;DHT22;67620;51.134;6.548;2023-07-24T08:41:11;19.70;75.90
78345;DHT22;67620;51.134;6.548;2023-07-24T08:43:38;19.70;76.70
78345;DHT22;67620;51.134;6.548;2023-07-24T08:46:05;19.80;76.00
78345;DHT22;67620;51.134;6.548;2023-07-24T08:48:37;19.80;75.50
78345;DHT22;67620;51.134;6.548;2023-07-24T08:51:05;19.70;75.30
78345;DHT22;67620;51.134;6.548;2023-07-24T08:53:33;19.70;75.30
78345;DHT22;67620;51.134;6.548;2023-07-24T08:56:05;19.70;75.60
78345;DHT22;67620;51.134;6.548;2023-07-24T08:58:32;19.70;76.20
78345;DHT22;67620;51.134;6.548;2023-07-24T09:00:59;19.70;76.20
78345;DHT22;67620;51.134;6.548;2023-07-24T09:03:25;19.70;75.40
78345;DHT22;67620;51.134;6.548;2023-07-24T09:05:51;19.70;75.30
78345;DHT22;67620;51.134;6.548;2023-07-24T09:08:16;19.70;75.50
78345;DHT22;67620;51.134;6.548;2023-07-24T09:10:42;19.70;75.20
78345;DHT22;67620;51.134;6.548;2023-07-24T09:13:08;19.70;75.90
78345;DHT22;67620;51.134;6.548;2023-07-24T09:15:41;19.70;76.10
78345;DHT22;67620;51.134;6.548;2023-07-24T09:18:06;19.70;75.30
78345;DHT22;67620;51.134;6.548;2023-07-24T09:20:41;19.70;75.60
78345;DHT22;67620;51.134;6.548;2023-07-24T09:23:08;19.80;75.00
78345;DHT22;67620;51.134;6.548;2023-07-24T09:25:39;19.80;75.30
78345;DHT22;67620;51.134;6.548;2023-07-24T09:28:15;19.90;76.00
78345;DHT22;67620;51.134;6.548;2023-07-24T09:30:42;20.00;75.50
78345;DHT22;67620;51.134;6.548;2023-07-24T09:33:16;20.10;75.40
78345;DHT22;67620;51.134;6.548;2023-07-24T09:35:41;20.20;75.50
78345;DHT22;67620;51.134;6.548;2023-07-24T09:38:11;20.20;72.70
78345;DHT22;67620;51.134;6.548;2023-07-24T09:40:43;20.20;73.60
78345;DHT22;67620;51.134;6.548;2023-07-24T09:45:44;20.30;71.50
78345;DHT22;67620;51.134;6.548;2023-07-24T09:48:12;20.30;72.90
78345;DHT22;67620;51.134;6.548;2023-07-24T09:50:41;20.30;72.50
78345;DHT22;67620;51.134;6.548;2023-07-24T09:53:12;20.30;73.60
78345;DHT22;67620;51.134;6.548;2023-07-24T09:55:47;20.30;73.40
78345;DHT22;67620;51.134;6.548;2023-07-24T09:58:15;20.30;74.00
78345;DHT22;67620;51.134;6.548;2023-07-24T10:00:41;20.40;72.80
78345;DHT22;67620;51.134;6.548;2023-07-24T10:03:08;20.40;71.60
78345;DHT22;67620;51.134;6.548;2023-07-24T10:05:34;20.40;71.60
78345;DHT22;67620;51.134;6.548;2023-07-24T10:08:01;20.40;71.80
78345;DHT22;67620;51.134;6.548;2023-07-24T10:10:27;20.40;72.00
78345;DHT22;67620;51.134;6.548;2023-07-24T10:12:55;20.40;72.00
78345;DHT22;67620;51.134;6.548;2023-07-24T10:15:21;20.40;71.10
78345;DHT22;67620;51.134;6.548;2023-07-24T10:17:46;20.40;72.10
78345;DHT22;67620;51.134;6.548;2023-07-24T10:20:12;20.40;72.60
78345;DHT22;67620;51.134;6.548;2023-07-24T10:22:41;20.40;71.70
78345;DHT22;67620;51.134;6.548;2023-07-24T10:25:09;20.40;72.10
78345;DHT22;67620;51.134;6.548;2023-07-24T10:27:39;20.40;73.30
78345;DHT22;67620;51.134;6.548;2023-07-24T10:30:06;20.40;76.10
78345;DHT22;67620;51.134;6.548;2023-07-24T10:32:33;20.50;76.40
78345;DHT22;67620;51.134;6.548;2023-07-24T10:35:08;20.50;75.10
78345;DHT22;67620;51.134;6.548;2023-07-24T10:37:37;20.50;73.80
78345;DHT22;67620;51.134;6.548;2023-07-24T10:40:04;20.60;74.00
78345;DHT22;67620;51.134;6.548;2023-07-24T10:42:30;20.70;75.10
78345;DHT22;67620;51.134;6.548;2023-07-24T10:45:06;20.70;73.00
78345;DHT22;67620;51.134;6.548;2023-07-24T10:47:33;20.70;73.60
78345;DHT22;67620;51.134;6.548;2023-07-24T10:49:58;20.80;73.80
78345;DHT22;67620;51.134;6.548;2023-07-24T10:52:32;20.90;74.50
78345;DHT22;67620;51.134;6.548;2023-07-24T10:55:04;20.90;73.80
78345;DHT22;67620;51.134;6.548;2023-07-24T10:57:30;20.90;70.80
78345;DHT22;67620;51.134;6.548;2023-07-24T10:59:56;20.80;71.70
78345;DHT22;67620;51.134;6.548;2023-07-24T11:02:22;20.80;71.20
78345;DHT22;67620;51.134;6.548;2023-07-24T11:04:47;20.70;70.60
78345;DHT22;67620;51.134;6.548;2023-07-24T11:07:13;20.60;70.40
78345;DHT22;67620;51.134;6.548;2023-07-24T11:09:40;20.60;70.40
78345;DHT22;67620;51.134;6.548;2023-07-24T11:12:14;20.60;70.80
78345;DHT22;67620;51.134;6.548;2023-07-24T11:14:50;20.50;71.60
78345;DHT22;67620;51.134;6.548;2023-07-24T11:17:15;20.50;73.10
78345;DHT22;67620;51.134;6.548;2023-07-24T11:19:41;20.50;74.90
78345;DHT22;67620;51.134;6.548;2023-07-24T11:22:07;20.50;75.50
78345;DHT22;67620;51.134;6.548;2023-07-24T11:24:32;20.40;76.50
78345;DHT22;67620;51.134;6.548;2023-07-24T11:26:58;20.30;79.40
78345;DHT22;67620;51.134;6.548;2023-07-24T11:29:24;20.10;79.10
78345;DHT22;67620;51.134;6.548;2023-07-24T11:31:55;20.00;77.90
78345;DHT22;67620;51.134;6.548;2023-07-24T11:34:22;19.80;77.20
78345;DHT22;67620;51.134;6.548;2023-07-24T11:36:48;19.70;75.60
78345;DHT22;67620;51.134;6.548;2023-07-24T11:39:14;19.60;76.10
78345;DHT22;67620;51.134;6.548;2023-07-24T11:41:46;19.50;76.60
78345;DHT22;67620;51.134;6.548;2023-07-24T11:44:13;19.60;76.80
78345;DHT22;67620;51.134;6.548;2023-07-24T11:46:42;19.60;77.10
78345;DHT22;67620;51.134;6.548;2023-07-24T11:49:08;19.60;78.60
78345;DHT22;67620;51.134;6.548;2023-07-24T11:51:36;19.70;78.70
78345;DHT22;67620;51.134;6.548;2023-07-24T11:54:11;19.70;79.70
78345;DHT22;67620;51.134;6.548;2023-07-24T11:56:37;19.70;79.30
78345;DHT22;67620;51.134;6.548;2023-07-24T11:59:13;19.70;80.10
78345;DHT22;67620;51.134;6.548;2023-07-24T12:01:38;19.60;79.90
78345;DHT22;67620;51.134;6.548;2023-07-24T12:04:04;19.60;79.80
78345;DHT22;67620;51.134;6.548;2023-07-24T12:06:33;19.60;80.00
78345;DHT22;67620;51.134;6.548;2023-07-24T12:09:04;19.50;80.30
78345;DHT22;67620;51.134;6.548;2023-07-24T12:11:31;19.50;79.80
78345;DHT22;67620;51.134;6.548;2023-07-24T12:13:57;19.50;79.20
78345;DHT22;67620;51.134;6.548;2023-07-24T12:16:22;19.50;79.00
78345;DHT22;67620;51.134;6.548;2023-07-24T12:18:48;19.60;79.70
78345;DHT22;67620;51.134;6.548;2023-07-24T12:21:13;19.70;81.70
78345;DHT22;67620;51.134;6.548;2023-07-24T12:23:39;19.90;83.50
78345;DHT22;67620;51.134;6.548;2023-07-24T12:26:04;20.00;84.70
78345;DHT22;67620;51.134;6.548;2023-07-24T12:28:30;20.10;83.00
78345;DHT22;67620;51.134;6.548;2023-07-24T12:30:55;20.10;82.50
78345;DHT22;67620;51.134;6.548;2023-07-24T12:33:21;20.10;77.70
78345;DHT22;67620;51.134;6.548;2023-07-24T12:35:49;20.10;76.30
78345;DHT22;67620;51.134;6.548;2023-07-24T12:38:15;20.10;78.30
78345;DHT22;67620;51.134;6.548;2023-07-24T12:40:40;20.20;80.00
78345;DHT22;67620;51.134;6.548;2023-07-24T12:43:06;20.30;74.30
78345;DHT22;67620;51.134;6.548;2023-07-24T12:45:31;20.40;77.70
78345;DHT22;67620;51.134;6.548;2023-07-24T12:47:57;20.50;77.50
78345;DHT22;67620;51.134;6.548;2023-07-24T12:50:22;20.50;74.10
78345;DHT22;67620;51.134;6.548;2023-07-24T12:52:48;20.60;73.40
78345;DHT22;67620;51.134;6.548;2023-07-24T12:55:14;20.60;75.30
78345;DHT22;67620;51.134;6.548;2023-07-24T12:57:39;20.70;75.30
78345;DHT22;67620;51.134;6.548;2023-07-24T13:00:05;20.70;76.50
78345;DHT22;67620;51.134;6.548;2023-07-24T13:02:31;20.70;76.10
78345;DHT22;67620;51.134;6.548;2023-07-24T13:04:57;20.60;74.90
78345;DHT22;67620;51.134;6.548;2023-07-24T13:07:23;20.60;75.80
78345;DHT22;67620;51.134;6.548;2023-07-24T13:09:48;20.60;75.90
78345;DHT22;67620;51.134;6.548;2023-07-24T13:12:14;20.60;75.70
78345;DHT22;67620;51.134;6.548;2023-07-24T13:14:39;20.70;77.30
78345;DHT22;67620;51.134;6.548;2023-07-24T13:17:05;20.80;75.60
78345;DHT22;67620;51.134;6.548;2023-07-24T13:19:32;20.90;75.90
78345;DHT22;67620;51.134;6.548;2023-07-24T13:21:57;20.90;75.60
78345;DHT22;67620;51.134;6.548;2023-07-24T13:24:23;21.00;75.80
78345;DHT22;67620;51.134;6.548;2023-07-24T13:26:48;21.00;76.60
78345;DHT22;67620;51.134;6.548;2023-07-24T13:29:14;21.10;76.60
78345;DHT22;67620;51.134;6.548;2023-07-24T13:31:40;21.10;75.40
78345;DHT22;67620;51.134;6.548;2023-07-24T13:34:06;21.10;75.30
78345;DHT22;67620;51.134;6.548;2023-07-24T13:36:32;21.20;75.10
78345;DHT22;67620;51.134;6.548;2023-07-24T13:38:58;21.20;74.20
78345;DHT22;67620;51.134;6.548;2023-07-24T13:41:23;21.40;74.60
78345;DHT22;67620;51.134;6.548;2023-07-24T13:43:49;21.30;73.50
78345;DHT22;67620;51.134;6.548;2023-07-24T13:46:15;21.30;73.40
78345;DHT22;67620;51.134;6.548;2023-07-24T13:48:40;21.20;73.70
78345;DHT22;67620;51.134;6.548;2023-07-24T13:51:06;21.20;72.40
78345;DHT22;67620;51.134;6.548;2023-07-24T13:53:31;21.20;73.10
78345;DHT22;67620;51.134;6.548;2023-07-24T13:55:57;21.10;72.40
78345;DHT22;67620;51.134;6.548;2023-07-24T13:58:22;21.10;73.10
78345;DHT22;67620;51.134;6.548;2023-07-24T14:00:48;21.10;72.30
78345;DHT22;67620;51.134;6.548;2023-07-24T14:03:13;21.10;74.10
78345;DHT22;67620;51.134;6.548;2023-07-24T14:05:39;21.10;74.40
78345;DHT22;67620;51.134;6.548;2023-07-24T14:08:05;21.10;74.40
78345;DHT22;67620;51.134;6.548;2023-07-24T14:10:30;21.10;74.70
78345;DHT22;67620;51.134;6.548;2023-07-24T14:12:56;21.10;73.90
78345;DHT22;67620;51.134;6.548;2023-07-24T14:15:22;21.10;73.80
78345;DHT22;67620;51.134;6.548;2023-07-24T14:17:47;21.10;75.10
78345;DHT22;67620;51.134;6.548;2023-07-24T14:20:13;21.00;74.30
78345;DHT22;67620;51.134;6.548;2023-07-24T14:22:38;20.90;74.80
78345;DHT22;67620;51.134;6.548;2023-07-24T14:25:04;20.80;74.90
78345;DHT22;67620;51.134;6.548;2023-07-24T14:27:31;20.70;75.20
78345;DHT22;67620;51.134;6.548;2023-07-24T14:29:57;20.70;76.40
78345;DHT22;67620;51.134;6.548;2023-07-24T14:32:22;20.70;76.20
78345;DHT22;67620;51.134;6.548;2023-07-24T14:34:51;20.70;76.60
78345;DHT22;67620;51.134;6.548;2023-07-24T14:37:18;20.70;77.90
78345;DHT22;67620;51.134;6.548;2023-07-24T14:39:43;20.70;79.50
78345;DHT22;67620;51.134;6.548;2023-07-24T14:42:10;20.70;77.80
78345;DHT22;67620;51.134;6.548;2023-07-24T14:44:36;20.80;79.60
78345;DHT22;67620;51.134;6.548;2023-07-24T14:47:01;20.90;79.30
78345;DHT22;67620;51.134;6.548;2023-07-24T14:49:27;21.00;77.90
78345;DHT22;67620;51.134;6.548;2023-07-24T14:51:52;21.10;77.70
78345;DHT22;67620;51.134;6.548;2023-07-24T14:54:18;21.10;77.50
78345;DHT22;67620;51.134;6.548;2023-07-24T14:56:43;21.10;76.90
78345;DHT22;67620;51.134;6.548;2023-07-24T14:59:09;21.10;77.40
78345;DHT22;67620;51.134;6.548;2023-07-24T15:01:35;21.10;76.80
78345;DHT22;67620;51.134;6.548;2023-07-24T15:04:00;21.10;75.80
78345;DHT22;67620;51.134;6.548;2023-07-24T15:06:26;21.10;76.00
78345;DHT22;67620;51.134;6.548;2023-07-24T15:08:51;21.00;76.10
78345;DHT22;67620;51.134;6.548;2023-07-24T15:11:24;21.00;75.70
78345;DHT22;67620;51.134;6.548;2023-07-24T15:13:50;21.00;75.50
78345;DHT22;67620;51.134;6.548;2023-07-24T15:16:16;21.10;75.40
78345;DHT22;67620;51.134;6.548;2023-07-24T15:18:42;21.10;75.50
78345;DHT22;67620;51.134;6.548;2023-07-24T15:21:08;21.10;74.20
78345;DHT22;67620;51.134;6.548;2023-07-24T15:23:34;21.10;73.50
78345;DHT22;67620;51.134;6.548;2023-07-24T15:26:00;21.20;72.00
78345;DHT22;67620;51.134;6.548;2023-07-24T15:28:25;21.20;71.80
78345;DHT22;67620;51.134;6.548;2023-07-24T15:30:51;21.20;72.30